createdAt,value
2023-01-08T00:00:16.678Z,101742.72
2023-01-08T00:02:52.809Z,101753.75
2023-01-08T00:05:21.688Z,101762.72
2023-01-08T00:07:57.115Z,101767.16
2023-01-08T00:10:27.381Z,101762.66
2023-01-08T00:13:01.452Z,101763.44
2023-01-08T00:15:31.256Z,101753.66
2023-01-08T00:18:06.693Z,101740.31
2023-01-08T00:20:44.622Z,101741.56
2023-01-08T00:23:23.857Z,101746.59
2023-01-08T00:25:59.048Z,101752.78
2023-01-08T00:28:33.763Z,101752.13
2023-01-08T00:31:15.380Z,101745.47
2023-01-08T00:33:42.528Z,101745.53
2023-01-08T00:36:27.609Z,101742.53
2023-01-08T00:39:10.002Z,101728.03
2023-01-08T00:41:36.853Z,101731.94
2023-01-08T00:44:08.225Z,101747.47
2023-01-08T00:46:40.655Z,101753.06
2023-01-08T00:49:10.381Z,101738.16
2023-01-08T00:51:45.716Z,101741.59
2023-01-08T00:54:29.384Z,101749.69
2023-01-08T00:56:56.337Z,101750.50
2023-01-08T00:59:23.348Z,101732.50
2023-01-08T01:02:04.857Z,101745.75
2023-01-08T01:04:41.158Z,101752.13
2023-01-08T01:07:42.348Z,101745.28
2023-01-08T01:10:36.314Z,101753.25
2023-01-08T01:13:03.104Z,101754.22
2023-01-08T01:15:30.159Z,101750.72
2023-01-08T01:18:14.880Z,101761.22
2023-01-08T01:20:42.389Z,101764.69
2023-01-08T01:23:15.228Z,101769.91
2023-01-08T01:25:48.721Z,101770.72
2023-01-08T01:28:18.995Z,101765.34
2023-01-08T01:30:59.722Z,101775.97
2023-01-08T01:33:27.011Z,101767.78
2023-01-08T01:36:04.954Z,101764.47
2023-01-08T01:38:32.190Z,101752.09
2023-01-08T01:41:02.611Z,101752.19
2023-01-08T01:43:47.971Z,101739.13
2023-01-08T01:46:37.088Z,101749.06
2023-01-08T01:49:15.918Z,101742.94
2023-01-08T01:51:51.293Z,101735.44
2023-01-08T01:54:26.213Z,101729.97
2023-01-08T01:57:02.179Z,101726.09
2023-01-08T01:59:29.380Z,101714.22
2023-01-08T02:02:01.684Z,101709.22
2023-01-08T02:04:28.668Z,101700.00
2023-01-08T02:07:15.077Z,101684.91
2023-01-08T02:09:51.124Z,101701.25
2023-01-08T02:12:39.364Z,101710.22
2023-01-08T02:15:43.700Z,101701.63
2023-01-08T02:18:16.983Z,101687.13
2023-01-08T02:21:10.821Z,101659.28
2023-01-08T02:23:47.239Z,101642.84
2023-01-08T02:26:22.556Z,101629.97
2023-01-08T02:29:11.219Z,101630.91
2023-01-08T02:31:44.190Z,101631.53
2023-01-08T02:34:12.859Z,101640.69
2023-01-08T02:37:00.631Z,101650.69
2023-01-08T02:40:07.409Z,101655.25
2023-01-08T02:42:54.005Z,101645.75
2023-01-08T02:45:46.609Z,101632.00
2023-01-08T02:48:39.505Z,101611.47
2023-01-08T02:51:26.012Z,101618.19
2023-01-08T02:53:59.932Z,101631.66
2023-01-08T02:56:47.236Z,101630.91
2023-01-08T02:59:21.354Z,101627.16
2023-01-08T03:01:51.505Z,101615.13
2023-01-08T03:04:23.163Z,101604.97
2023-01-08T03:06:51.051Z,101596.28
2023-01-08T03:09:27.141Z,101598.56
2023-01-08T03:12:03.802Z,101608.19
2023-01-08T03:15:09.691Z,101597.22
2023-01-08T03:17:43.584Z,101594.16
2023-01-08T03:20:24.914Z,101592.16
2023-01-08T03:22:55.609Z,101600.50
2023-01-08T03:25:29.048Z,101591.00
2023-01-08T03:28:04.556Z,101597.31
2023-01-08T03:30:44.592Z,101591.19
2023-01-08T03:33:21.728Z,101590.22
2023-01-08T03:35:54.516Z,101593.34
2023-01-08T03:38:28.954Z,101595.56
2023-01-08T03:41:01.252Z,101595.72
2023-01-08T03:43:29.415Z,101591.22
2023-01-08T03:46:02.553Z,101590.63
2023-01-08T03:48:32.779Z,101590.88
2023-01-08T03:51:12.932Z,101578.84
2023-01-08T03:53:51.353Z,101588.84
2023-01-08T03:56:20.086Z,101579.38
2023-01-08T03:58:49.808Z,101585.00
2023-01-08T04:01:16.665Z,101595.72
2023-01-08T04:03:43.615Z,101585.25
2023-01-08T04:06:25.440Z,101580.03
2023-01-08T04:08:56.114Z,101583.47
2023-01-08T04:11:24.837Z,101583.56
2023-01-08T04:13:54.723Z,101571.91
2023-01-08T04:16:27.351Z,101563.28
2023-01-08T04:19:01.508Z,101565.09
2023-01-08T04:21:33.994Z,101564.72
2023-01-08T04:24:01.670Z,101568.13
2023-01-08T04:26:28.731Z,101563.94
2023-01-08T04:29:14.397Z,101566.94
2023-01-08T04:31:48.027Z,101563.19
2023-01-08T04:34:23.593Z,101561.06
2023-01-08T04:36:50.351Z,101557.97
2023-01-08T04:39:17.042Z,101562.97
2023-01-08T04:41:51.535Z,101569.44
2023-01-08T04:44:18.278Z,101562.25
2023-01-08T04:46:44.984Z,101565.31
2023-01-08T04:49:14.949Z,101558.00
2023-01-08T04:51:44.566Z,101564.28
2023-01-08T04:54:12.424Z,101570.44
2023-01-08T04:56:39.305Z,101567.91
2023-01-08T04:59:06.195Z,101569.66
2023-01-08T05:01:34.882Z,101570.41
2023-01-08T05:04:07.742Z,101559.09
2023-01-08T05:06:45.219Z,101564.50
2023-01-08T05:09:16.330Z,101571.53
2023-01-08T05:11:43.502Z,101571.44
2023-01-08T05:14:10.276Z,101585.50
2023-01-08T05:16:37.092Z,101588.94
2023-01-08T05:19:07.867Z,101584.59
2023-01-08T05:21:40.582Z,101588.16
2023-01-08T05:24:07.706Z,101585.53
2023-01-08T05:26:38.661Z,101582.06
2023-01-08T05:29:05.485Z,101580.25
2023-01-08T05:31:33.653Z,101573.28
2023-01-08T05:34:03.340Z,101568.94
2023-01-08T05:36:33.045Z,101568.06
2023-01-08T05:39:02.898Z,101562.84
2023-01-08T05:41:38.919Z,101563.72
2023-01-08T05:44:08.886Z,101554.97
2023-01-08T05:46:35.656Z,101552.38
2023-01-08T05:49:05.077Z,101550.59
2023-01-08T05:51:43.886Z,101540.13
2023-01-08T05:54:23.807Z,101536.63
2023-01-08T05:56:56.777Z,101534.00
2023-01-08T05:59:24.973Z,101525.28
2023-01-08T06:01:51.791Z,101528.78
2023-01-08T06:04:21.328Z,101521.75
2023-01-08T06:06:51.072Z,101514.78
2023-01-08T06:09:20.762Z,101525.25
2023-01-08T06:11:47.554Z,101513.88
2023-01-08T06:14:16.050Z,101508.63
2023-01-08T06:16:49.403Z,101512.94
2023-01-08T06:19:16.197Z,101507.44
2023-01-08T06:21:47.862Z,101509.13
2023-01-08T06:26:57.902Z,101489.22
2023-01-08T06:29:24.753Z,101488.06
2023-01-08T06:31:53.723Z,101484.13
2023-01-08T06:34:20.713Z,101493.38
2023-01-08T06:36:48.453Z,101490.22
2023-01-08T06:39:15.341Z,101477.72
2023-01-08T06:42:10.456Z,101476.47
2023-01-08T06:44:41.576Z,101472.25
2023-01-08T06:47:12.161Z,101475.59
2023-01-08T06:49:46.540Z,101469.28
2023-01-08T06:52:13.429Z,101460.00
2023-01-08T06:54:40.125Z,101464.16
2023-01-08T06:57:14.377Z,101469.91
2023-01-08T06:59:44.439Z,101461.03
2023-01-08T07:02:22.895Z,101452.19
2023-01-08T07:04:56.677Z,101448.28
2023-01-08T07:07:23.523Z,101456.88
2023-01-08T07:09:54.516Z,101445.25
2023-01-08T07:12:21.471Z,101444.41
2023-01-08T07:14:50.707Z,101445.72
2023-01-08T07:17:17.554Z,101442.00
2023-01-08T07:19:44.410Z,101429.44
2023-01-08T07:22:13.949Z,101424.91
2023-01-08T07:24:48.160Z,101422.91
2023-01-08T07:27:14.927Z,101429.72
2023-01-08T07:29:44.217Z,101430.22
2023-01-08T07:32:12.342Z,101431.22
2023-01-08T07:34:41.562Z,101441.06
2023-01-08T07:37:11.867Z,101436.13
2023-01-08T07:39:38.677Z,101449.44
2023-01-08T07:42:10.948Z,101448.50
2023-01-08T07:44:37.683Z,101451.59
2023-01-08T07:47:04.947Z,101450.09
2023-01-08T07:49:33.537Z,101445.13
2023-01-08T07:52:05.693Z,101456.09
2023-01-08T07:54:34.273Z,101463.03
2023-01-08T07:57:01.346Z,101441.66
2023-01-08T07:59:29.817Z,101446.38
2023-01-08T08:01:56.640Z,101443.03
2023-01-08T08:04:26.376Z,101435.88
2023-01-08T08:06:54.239Z,101450.47
2023-01-08T08:09:24.890Z,101435.47
2023-01-08T08:11:53.635Z,101428.69
2023-01-08T08:14:22.313Z,101439.19
2023-01-08T08:16:51.165Z,101432.75
2023-01-08T08:22:06.126Z,101435.09
2023-01-08T08:24:35.941Z,101438.97
2023-01-08T08:27:02.675Z,101438.38
2023-01-08T08:29:31.379Z,101435.03
2023-01-08T08:31:58.233Z,101445.53
2023-01-08T08:34:27.584Z,101434.56
2023-01-08T08:36:58.396Z,101438.91
2023-01-08T08:39:28.145Z,101424.50
2023-01-08T08:41:57.348Z,101424.25
2023-01-08T08:44:25.288Z,101425.56
2023-01-08T08:46:55.906Z,101424.00
2023-01-08T08:49:27.286Z,101418.09
2023-01-08T08:51:57.541Z,101427.06
2023-01-08T08:54:24.163Z,101423.94
2023-01-08T08:56:50.825Z,101427.25
2023-01-08T08:59:17.606Z,101427.94
2023-01-08T09:01:44.425Z,101416.78
2023-01-08T09:04:11.408Z,101418.56
2023-01-08T09:06:38.219Z,101422.31
2023-01-08T09:09:05.077Z,101417.34
2023-01-08T09:11:36.764Z,101414.91
2023-01-08T09:14:12.851Z,101414.91
2023-01-08T09:16:45.818Z,101413.47
2023-01-08T09:19:17.955Z,101417.00
2023-01-08T09:21:58.943Z,101402.59
2023-01-08T09:24:32.322Z,101405.56
2023-01-08T09:26:59.470Z,101409.41
2023-01-08T09:29:26.813Z,101401.84
2023-01-08T09:32:01.581Z,101396.16
2023-01-08T09:34:28.623Z,101392.31
2023-01-08T09:36:56.387Z,101401.19
2023-01-08T09:39:25.124Z,101393.59
2023-01-08T09:41:54.267Z,101387.38
2023-01-08T09:44:26.703Z,101375.41
2023-01-08T09:47:02.868Z,101382.03
2023-01-08T09:49:46.831Z,101367.31
2023-01-08T09:52:15.735Z,101365.00
2023-01-08T09:54:42.893Z,101360.13
2023-01-08T09:57:24.743Z,101349.84
2023-01-08T09:59:51.737Z,101346.22
2023-01-08T10:02:40.392Z,101340.63
2023-01-08T10:05:20.477Z,101337.63
2023-01-08T10:07:53.767Z,101337.09
2023-01-08T10:10:34.409Z,101333.34
2023-01-08T10:13:03.118Z,101337.09
2023-01-08T10:15:32.721Z,101331.94
2023-01-08T10:18:14.785Z,101322.88
2023-01-08T10:20:50.485Z,101326.06
2023-01-08T10:23:23.017Z,101321.38
2023-01-08T10:26:00.572Z,101307.81
2023-01-08T10:28:37.900Z,101317.97
2023-01-08T10:31:17.070Z,101316.75
2023-01-08T10:33:50.784Z,101300.78
2023-01-08T10:36:20.962Z,101289.41
2023-01-08T10:38:59.324Z,101290.81
2023-01-08T10:41:30.390Z,101275.75
2023-01-08T10:44:24.712Z,101277.97
2023-01-08T10:47:04.663Z,101271.06
2023-01-08T10:49:39.489Z,101263.50
2023-01-08T10:52:28.160Z,101264.84
2023-01-08T10:55:01.724Z,101253.94
2023-01-08T10:57:32.917Z,101259.19
2023-01-08T11:00:02.795Z,101256.94
2023-01-08T11:02:49.713Z,101256.31
2023-01-08T11:05:17.065Z,101252.88
2023-01-08T11:07:48.896Z,101250.69
2023-01-08T11:10:52.883Z,101248.41
2023-01-08T11:13:26.170Z,101240.22
2023-01-08T11:16:13.695Z,101243.03
2023-01-08T11:18:56.680Z,101231.59
2023-01-08T11:21:33.644Z,101220.56
2023-01-08T11:24:24.335Z,101220.81
2023-01-08T11:27:15.959Z,101204.88
2023-01-08T11:29:57.529Z,101198.97
2023-01-08T11:32:47.943Z,101198.91
2023-01-08T11:35:26.321Z,101195.72
2023-01-08T11:38:01.970Z,101195.03
2023-01-08T11:40:50.381Z,101187.00
2023-01-08T11:43:37.766Z,101173.56
2023-01-08T11:46:33.844Z,101165.25
2023-01-08T11:49:25.106Z,101173.13
2023-01-08T11:52:06.822Z,101152.56
2023-01-08T11:55:21.238Z,101148.34
2023-01-08T11:58:26.983Z,101140.00
2023-01-08T12:01:31.629Z,101134.16
2023-01-08T12:04:34.493Z,101120.69
2023-01-08T12:07:24.620Z,101132.63
2023-01-08T12:10:25.385Z,101132.41
2023-01-08T12:13:19.990Z,101107.09
2023-01-08T12:15:55.754Z,101115.91
2023-01-08T12:18:43.634Z,101117.28
2023-01-08T12:21:25.571Z,101119.19
2023-01-08T12:24:26.914Z,101108.00
2023-01-08T12:27:19.435Z,101111.78
2023-01-08T12:29:58.183Z,101095.53
2023-01-08T12:32:48.024Z,101092.25
2023-01-08T12:35:21.509Z,101085.00
2023-01-08T12:38:06.401Z,101076.81
2023-01-08T12:40:41.229Z,101067.97
2023-01-08T12:43:22.793Z,101049.44
2023-01-08T12:45:59.666Z,101053.94
2023-01-08T12:48:38.787Z,101053.47
2023-01-08T12:51:22.496Z,101039.38
2023-01-08T12:53:49.407Z,101043.59
2023-01-08T12:56:25.799Z,101042.59
2023-01-08T12:59:11.776Z,101044.47
2023-01-08T13:02:07.137Z,101032.59
2023-01-08T13:04:47.866Z,101032.13
2023-01-08T13:07:28.139Z,101030.69
2023-01-08T13:10:06.063Z,101023.09
2023-01-08T13:12:45.279Z,101015.78
2023-01-08T13:15:26.667Z,101015.47
2023-01-08T13:18:01.423Z,101007.84
2023-01-08T13:20:35.376Z,101001.31
2023-01-08T13:23:05.745Z,101004.69
2023-01-08T13:25:58.988Z,101001.44
2023-01-08T13:28:28.976Z,101006.41
2023-01-08T13:31:07.220Z,100990.50
2023-01-08T13:33:33.995Z,100989.41
2023-01-08T13:36:12.935Z,100992.22
2023-01-08T13:39:06.794Z,100991.19
2023-01-08T13:41:40.371Z,100991.06
2023-01-08T13:44:31.699Z,100981.75
2023-01-08T13:47:06.825Z,100992.06
2023-01-08T13:49:43.684Z,100977.72
2023-01-08T13:52:44.817Z,100988.13
2023-01-08T13:55:40.112Z,100980.09
2023-01-08T13:58:23.328Z,100986.31
2023-01-08T14:00:52.912Z,100970.31
2023-01-08T14:03:32.026Z,100969.28
2023-01-08T14:06:21.643Z,100976.63
2023-01-08T14:09:01.401Z,100973.56
2023-01-08T14:11:44.811Z,100983.66
2023-01-08T14:14:20.651Z,100987.88
2023-01-08T14:16:52.466Z,100980.88
2023-01-08T14:19:25.591Z,100999.22
2023-01-08T14:21:58.422Z,100994.84
2023-01-08T14:24:28.342Z,100992.66
2023-01-08T14:26:58.698Z,100987.84
2023-01-08T14:29:33.090Z,100982.59
2023-01-08T14:32:01.441Z,100992.38
2023-01-08T14:34:40.010Z,100995.84
2023-01-08T14:37:12.855Z,100981.66
2023-01-08T14:39:39.677Z,100984.59
2023-01-08T14:42:58.969Z,100986.19
2023-01-08T14:45:37.061Z,100988.06
2023-01-08T14:48:44.568Z,100977.72
2023-01-08T14:51:32.539Z,100984.97
2023-01-08T14:54:05.700Z,100988.66
2023-01-08T14:56:36.251Z,100990.06
2023-01-08T14:59:12.000Z,100991.13
2023-01-08T15:01:42.062Z,100986.88
2023-01-08T15:04:21.212Z,100977.19
2023-01-08T15:06:49.191Z,100986.56
2023-01-08T15:09:32.424Z,100991.66
2023-01-08T15:12:23.377Z,100997.81
2023-01-08T15:14:52.357Z,100996.22
2023-01-08T15:17:25.124Z,100989.16
2023-01-08T15:20:03.918Z,100983.09
2023-01-08T15:22:36.005Z,100990.25
2023-01-08T15:25:06.844Z,100999.19
2023-01-08T15:27:40.033Z,100993.22
2023-01-08T15:30:11.921Z,100991.50
2023-01-08T15:32:49.240Z,100987.88
2023-01-08T15:35:18.898Z,100988.94
2023-01-08T15:37:56.113Z,100996.34
2023-01-08T15:40:31.888Z,100985.03
2023-01-08T15:43:13.810Z,100982.53
2023-01-08T15:45:48.666Z,100988.72
2023-01-08T15:48:15.610Z,100992.31
2023-01-08T15:50:52.455Z,100982.59
2023-01-08T15:53:24.887Z,100970.50
2023-01-08T15:55:56.801Z,100971.13
2023-01-08T15:58:26.497Z,100963.13
2023-01-08T16:00:58.424Z,100956.75
2023-01-08T16:03:29.367Z,100967.22
2023-01-08T16:06:05.346Z,100962.03
2023-01-08T16:08:37.733Z,100956.88
2023-01-08T16:11:07.625Z,100951.69
2023-01-08T16:13:41.653Z,100953.53
2023-01-08T16:16:14.290Z,100955.34
2023-01-08T16:18:44.947Z,100948.47
2023-01-08T16:21:15.434Z,100948.53
2023-01-08T16:23:48.244Z,100952.94
2023-01-08T16:26:22.816Z,100938.78
2023-01-08T16:28:49.830Z,100931.94
2023-01-08T16:31:19.615Z,100933.97
2023-01-08T16:33:48.391Z,100927.59
2023-01-08T16:36:18.158Z,100922.25
2023-01-08T16:38:50.574Z,100914.44
2023-01-08T16:41:17.480Z,100924.91
2023-01-08T16:43:47.459Z,100923.19
2023-01-08T16:46:18.160Z,100910.25
2023-01-08T16:48:50.923Z,100916.22
2023-01-08T16:51:18.046Z,100910.03
2023-01-08T16:53:47.787Z,100891.75
2023-01-08T16:56:16.269Z,100877.00
2023-01-08T16:58:49.716Z,100894.66
2023-01-08T17:01:17.811Z,100887.94
2023-01-08T17:03:47.354Z,100869.63
2023-01-08T17:06:17.670Z,100876.75
2023-01-08T17:08:47.457Z,100875.34
2023-01-08T17:11:19.948Z,100869.91
2023-01-08T17:13:47.497Z,100854.44
2023-01-08T17:16:22.728Z,100850.13
2023-01-08T17:18:57.248Z,100841.91
2023-01-08T17:21:27.198Z,100837.44
2023-01-08T17:23:54.296Z,100837.97
2023-01-08T17:26:31.687Z,100827.59
2023-01-08T17:29:01.779Z,100820.59
2023-01-08T17:31:42.213Z,100822.03
2023-01-08T17:34:21.773Z,100828.75
2023-01-08T17:36:51.574Z,100821.03
2023-01-08T17:39:18.515Z,100817.03
2023-01-08T17:42:03.895Z,100814.53
2023-01-08T17:44:31.727Z,100815.25
2023-01-08T17:47:00.697Z,100810.78
2023-01-08T17:49:30.620Z,100809.09
2023-01-08T17:52:00.679Z,100800.19
2023-01-08T17:54:27.669Z,100792.28
2023-01-08T17:56:57.839Z,100797.22
2023-01-08T17:59:34.042Z,100794.47
2023-01-08T18:02:02.083Z,100787.41
2023-01-08T18:04:32.584Z,100776.28
2023-01-08T18:07:02.323Z,100773.22
2023-01-08T18:09:36.893Z,100784.03
2023-01-08T18:12:05.813Z,100777.94
2023-01-08T18:14:42.265Z,100777.31
2023-01-08T18:17:12.655Z,100755.97
2023-01-08T18:19:57.755Z,100749.97
2023-01-08T18:22:30.635Z,100743.84
2023-01-08T18:24:57.762Z,100737.94
2023-01-08T18:27:29.854Z,100735.41
2023-01-08T18:29:56.990Z,100725.84
2023-01-08T18:32:26.531Z,100734.13
2023-01-08T18:34:57.921Z,100722.84
2023-01-08T18:37:27.748Z,100723.91
2023-01-08T18:39:54.641Z,100725.75
2023-01-08T18:42:35.298Z,100726.31
2023-01-08T18:45:08.032Z,100721.50
2023-01-08T18:47:38.775Z,100712.56
2023-01-08T18:50:09.339Z,100704.41
2023-01-08T18:52:42.501Z,100708.16
2023-01-08T18:55:15.325Z,100711.44
2023-01-08T18:57:42.443Z,100709.53
2023-01-08T19:00:10.996Z,100700.38
2023-01-08T19:02:40.444Z,100701.44
2023-01-08T19:05:09.567Z,100690.91
2023-01-08T19:07:41.743Z,100682.78
2023-01-08T19:10:13.206Z,100679.06
2023-01-08T19:12:49.024Z,100672.66
2023-01-08T19:15:26.069Z,100658.38
2023-01-08T19:17:52.880Z,100660.06
2023-01-08T19:23:03.633Z,100653.88
2023-01-08T19:25:32.943Z,100635.47
2023-01-08T19:28:08.670Z,100632.56
2023-01-08T19:30:39.870Z,100627.88
2023-01-08T19:33:11.658Z,100634.25
2023-01-08T19:35:40.438Z,100629.69
2023-01-08T19:38:13.235Z,100627.69
2023-01-08T19:40:40.151Z,100607.66
2023-01-08T19:43:30.452Z,100614.41
2023-01-08T19:45:57.867Z,100614.22
2023-01-08T19:48:31.853Z,100617.63
2023-01-08T19:51:01.737Z,100604.31
2023-01-08T19:53:28.817Z,100603.94
2023-01-08T19:56:11.520Z,100598.03
2023-01-08T19:58:45.288Z,100580.56
2023-01-08T20:01:22.725Z,100589.38
2023-01-08T20:03:50.893Z,100585.00
2023-01-08T20:06:23.335Z,100587.28
2023-01-08T20:08:52.973Z,100579.78
2023-01-08T20:11:21.844Z,100577.28
2023-01-08T20:14:14.883Z,100581.81
2023-01-08T20:16:41.965Z,100577.91
2023-01-08T20:19:15.769Z,100572.00
2023-01-08T20:21:48.607Z,100577.22
2023-01-08T20:24:16.647Z,100571.69
2023-01-08T20:26:48.399Z,100573.66
2023-01-08T20:29:17.410Z,100561.19
2023-01-08T20:31:46.485Z,100564.81
2023-01-08T20:34:15.963Z,100563.03
2023-01-08T20:36:47.240Z,100559.03
2023-01-08T20:39:16.959Z,100554.31
2023-01-08T20:41:55.373Z,100543.13
2023-01-08T20:44:35.910Z,100534.75
2023-01-08T20:47:02.843Z,100537.09
2023-01-08T20:49:31.689Z,100523.84
2023-01-08T20:52:11.395Z,100525.47
2023-01-08T20:54:40.038Z,100515.63
2023-01-08T20:57:22.350Z,100510.41
2023-01-08T20:59:52.268Z,100500.88
2023-01-08T21:02:22.603Z,100496.34
2023-01-08T21:04:55.788Z,100486.84
2023-01-08T21:07:22.823Z,100484.25
2023-01-08T21:09:55.101Z,100472.22
2023-01-08T21:12:26.976Z,100466.03
2023-01-08T21:14:56.831Z,100460.31
2023-01-08T21:17:27.838Z,100461.78
2023-01-08T21:20:11.830Z,100450.75
2023-01-08T21:22:47.075Z,100450.19
2023-01-08T21:25:16.355Z,100443.34
2023-01-08T21:27:47.726Z,100430.22
2023-01-08T21:30:17.717Z,100428.25
2023-01-08T21:32:51.054Z,100417.63
2023-01-08T21:35:21.617Z,100403.72
2023-01-08T21:37:52.660Z,100402.09
2023-01-08T21:40:22.932Z,100385.88
2023-01-08T21:43:08.385Z,100380.97
2023-01-08T21:45:37.910Z,100373.00
2023-01-08T21:48:05.189Z,100369.56
2023-01-08T21:50:31.960Z,100360.69
2023-01-08T21:56:04.851Z,100348.25
2023-01-08T21:58:36.770Z,100357.28
2023-01-08T22:01:10.125Z,100346.13
2023-01-08T22:03:38.347Z,100343.31
2023-01-08T22:06:06.815Z,100349.06
2023-01-08T22:08:36.932Z,100335.38
2023-01-08T22:11:08.329Z,100344.31
2023-01-08T22:13:36.456Z,100351.69
2023-01-08T22:16:09.285Z,100347.88
2023-01-08T22:18:36.846Z,100349.56
2023-01-08T22:21:11.072Z,100333.50
2023-01-08T22:23:43.711Z,100327.28
2023-01-08T22:26:29.153Z,100332.53
2023-01-08T22:29:02.830Z,100326.81
2023-01-08T22:31:33.682Z,100319.34
2023-01-08T22:34:00.937Z,100307.34
2023-01-08T22:36:30.726Z,100310.06
2023-01-08T22:38:58.039Z,100295.25
2023-01-08T22:41:29.536Z,100301.13
2023-01-08T22:44:09.997Z,100301.75
2023-01-08T22:46:41.805Z,100292.13
2023-01-08T22:49:11.875Z,100293.16
2023-01-08T22:51:40.911Z,100290.59
2023-01-08T22:54:09.972Z,100287.56
2023-01-08T22:56:40.131Z,100258.88
2023-01-08T22:59:07.023Z,100254.69
2023-01-08T23:01:41.640Z,100238.94
2023-01-08T23:04:14.192Z,100236.91
2023-01-08T23:06:46.635Z,100200.16
2023-01-08T23:09:20.681Z,100180.25
2023-01-08T23:11:52.487Z,100163.31
2023-01-08T23:14:19.743Z,100168.13
2023-01-08T23:16:51.423Z,100171.16
2023-01-08T23:19:18.605Z,100174.44
2023-01-08T23:21:46.632Z,100171.59
2023-01-08T23:24:14.111Z,100168.31
2023-01-08T23:26:49.394Z,100174.31
2023-01-08T23:29:19.439Z,100173.44
2023-01-08T23:31:59.754Z,100168.69
2023-01-08T23:34:31.973Z,100167.66
2023-01-08T23:36:59.829Z,100163.66
2023-01-08T23:39:38.203Z,100152.38
2023-01-08T23:42:05.336Z,100142.09
2023-01-08T23:44:32.192Z,100138.22
2023-01-08T23:46:59.085Z,100130.38
2023-01-08T23:49:29.045Z,100124.69
2023-01-08T23:51:58.864Z,100115.63
2023-01-08T23:54:25.685Z,100105.19
2023-01-08T23:56:58.987Z,100098.97
2023-01-08T23:59:28.855Z,100100.69
